Time;durP1;ratioP1;P1;durP2;ratioP2;P2;SDS_P1;SDS_P2;PMS_P1;PMS_P2;Temp;Humidity;BMP_temperature;BMP_pressure;BME280_temperature;BME280_humidity;BME280_pressure;Samples;Min_cycle;Max_cycle;Signal;HPM_P1;HPM_P2
2022/02/08 00:00:55;;;;;;;18.65;3.03;;;;;;;7.42;100.00;102518.25;5032538;28;20072;-63
2022/02/08 00:03:21;;;;;;;24.02;3.40;;;;;;;7.43;100.00;102519.13;5034817;28;20061;-64
2022/02/08 00:08:36;;;;;;;22.10;3.40;;;;;;;7.52;100.00;102513.81;5031866;28;20116;-64
2022/02/08 00:11:01;;;;;;;17.25;3.67;;;;;;;7.54;100.00;102507.66;5032178;28;20116;-65
2022/02/08 00:13:26;;;;;;;17.63;3.08;;;;;;;7.54;100.00;102510.28;5032498;28;20038;-64
2022/02/08 00:15:52;;;;;;;16.90;3.20;;;;;;;7.55;100.00;102517.28;5032082;28;20018;-64
2022/02/08 00:18:17;;;;;;;16.75;3.15;;;;;;;7.59;100.00;102517.28;5032321;28;20084;-64
2022/02/08 00:20:42;;;;;;;23.05;4.10;;;;;;;7.60;100.00;102513.78;5032199;28;20045;-64
2022/02/08 00:23:08;;;;;;;22.25;3.97;;;;;;;7.63;100.00;102519.88;5031027;28;20370;-65
2022/02/08 00:25:33;;;;;;;20.58;3.50;;;;;;;7.67;100.00;102529.56;5032235;28;20073;-64
2022/02/08 00:27:58;;;;;;;22.50;2.78;;;;;;;7.69;100.00;102519.84;5032063;28;20056;-64
2022/02/08 00:30:24;;;;;;;24.83;3.67;;;;;;;7.68;100.00;102518.09;5032341;28;20067;-65
2022/02/08 00:32:49;;;;;;;16.55;2.90;;;;;;;7.69;100.00;102517.22;5030618;28;20374;-64
2022/02/08 00:35:14;;;;;;;18.23;3.08;;;;;;;7.69;100.00;102516.34;5032269;28;20121;-64
2022/02/08 00:37:39;;;;;;;21.08;3.22;;;;;;;7.69;100.00;102505.81;5032200;28;20487;-65
2022/02/08 00:40:05;;;;;;;17.40;2.97;;;;;;;7.72;100.00;102505.78;5031678;28;20073;-65
2022/02/08 00:42:32;;;;;;;18.98;3.03;;;;;;;7.73;100.00;102501.41;5031298;28;20041;-65
2022/02/08 00:45:29;;;;;;;21.63;3.08;;;;;;;7.79;100.00;102501.38;5027557;28;20058;-64
2022/02/08 00:47:49;;;;;;;22.15;3.42;;;;;;;7.79;100.00;102514.56;5013587;28;20030;-64
2022/02/08 00:50:15;;;;;;;18.92;3.47;;;;;;;7.81;100.00;102520.69;5026790;28;20044;-64
2022/02/08 00:52:40;;;;;;;15.98;3.13;;;;;;;7.82;100.00;102511.88;5033541;28;20068;-64
2022/02/08 00:55:09;;;;;;;22.30;3.72;;;;;;;7.84;100.00;102518.03;5033938;28;20021;-64
2022/02/08 00:57:34;;;;;;;24.90;3.88;;;;;;;7.90;100.00;102512.69;5033910;28;20036;-65
2022/02/08 01:00:00;;;;;;;20.08;3.40;;;;;;;7.91;100.00;102505.69;5034725;28;20029;-64
2022/02/08 01:02:26;;;;;;;16.17;2.97;;;;;;;7.95;100.00;102507.41;5033662;28;20025;-64
2022/02/08 01:04:58;;;;;;;18.85;3.63;;;;;;;8.02;100.00;102503.84;5033299;28;20021;-64
2022/02/08 01:07:24;;;;;;;23.88;4.05;;;;;;;8.02;100.00;102511.75;5033978;28;20022;-64
2022/02/08 01:10:00;;;;;;;16.42;3.13;;;;;;;8.01;100.00;102502.09;5033867;28;20033;-64
2022/02/08 01:12:29;;;;;;;18.60;3.60;;;;;;;8.09;100.00;102499.38;5034629;28;20473;-64
2022/02/08 01:14:55;;;;;;;15.00;3.75;;;;;;;8.21;100.00;102494.03;5033332;28;20025;-65
2022/02/08 01:17:23;;;;;;;14.80;3.55;;;;;;;8.27;100.00;102496.59;5033625;28;20053;-64
2022/02/08 01:19:57;;;;;;;19.33;3.60;;;;;;;8.33;100.00;102496.53;5033357;28;20117;-64
2022/02/08 01:22:23;;;;;;;18.63;3.28;;;;;;;8.38;100.00;102499.16;5034539;28;20043;-65
2022/02/08 01:24:50;;;;;;;13.07;3.58;;;;;;;8.40;100.00;102488.56;5033314;28;20532;-64
2022/02/08 01:27:17;;;;;;;16.45;3.15;;;;;;;8.41;100.00;102495.59;5033290;28;20412;-65
2022/02/08 01:32:49;;;;;;;19.88;3.38;;;;;;;8.41;100.00;102487.69;5034505;28;20076;-63
2022/02/08 01:40:14;;;;;;;19.63;3.70;;;;;;;8.43;100.00;102505.25;5033334;28;20126;-64
2022/02/08 01:48:08;;;;;;;22.40;3.30;;;;;;;8.48;100.00;102497.34;5033299;28;20060;-65
2022/02/08 01:50:34;;;;;;;20.35;3.83;;;;;;;8.50;100.00;102499.06;5032662;28;20050;-63
2022/02/08 01:53:00;;;;;;;18.95;3.97;;;;;;;8.49;100.00;102497.31;5034078;28;20025;-64
2022/02/08 01:55:26;;;;;;;18.23;3.95;;;;;;;8.50;100.00;102499.06;5032702;28;20532;-64
2022/02/08 01:57:51;;;;;;;19.50;3.60;;;;;;;8.51;100.00;102498.16;5032897;28;20630;-64
2022/02/08 02:00:19;;;;;;;17.95;3.95;;;;;;;8.57;100.00;102506.91;5032802;28;20489;-64
2022/02/08 02:02:45;;;;;;;18.67;4.55;;;;;;;8.61;100.00;102514.81;5032734;28;20026;-70
2022/02/08 02:05:10;;;;;;;17.20;4.80;;;;;;;8.61;100.00;102517.44;5033436;28;20030;-67
2022/02/08 02:07:37;;;;;;;21.08;6.28;;;;;;;8.63;100.00;102517.41;5032214;28;20052;-68
2022/02/08 02:10:04;;;;;;;20.77;5.68;;;;;;;8.66;100.00;102523.56;5032642;28;20033;-68
2022/02/08 02:12:29;;;;;;;19.30;5.68;;;;;;;8.64;100.00;102512.13;5032544;28;20025;-68
2022/02/08 02:14:58;;;;;;;16.55;5.93;;;;;;;8.68;100.00;102520.88;5033623;28;20040;-68
2022/02/08 02:17:24;;;;;;;19.08;5.15;;;;;;;8.63;100.00;102502.47;5032343;28;20029;-69
2022/02/08 02:19:49;;;;;;;21.63;5.32;;;;;;;8.64;100.00;102517.41;5032217;28;20370;-67
2022/02/08 02:22:15;;;;;;;18.55;4.43;;;;;;;8.62;100.00;102508.63;5032121;28;20045;-67
2022/02/08 02:24:40;;;;;;;21.23;4.10;;;;;;;8.62;100.00;102520.94;5031826;28;20033;-68
2022/02/08 02:27:07;;;;;;;15.40;3.55;;;;;;;8.63;100.00;102517.41;5027987;28;20038;-69
2022/02/08 02:29:33;;;;;;;18.05;3.72;;;;;;;8.63;100.00;102513.03;5012656;28;20531;-67
2022/02/08 02:31:59;;;;;;;12.82;3.42;;;;;;;8.66;100.00;102514.78;5012806;28;20108;-68
2022/02/08 02:34:25;;;;;;;17.42;3.50;;;;;;;8.67;100.00;102514.75;5012580;28;20021;-68
2022/02/08 02:36:53;;;;;;;16.17;3.28;;;;;;;8.71;100.00;102512.94;5019572;28;20436;-68
2022/02/08 02:39:24;;;;;;;13.18;3.10;;;;;;;8.71;100.00;102510.31;5012710;28;20037;-65
2022/02/08 02:41:50;;;;;;;16.33;3.15;;;;;;;8.73;100.00;102495.31;5021154;28;20073;-67
2022/02/08 02:44:18;;;;;;;13.55;2.72;;;;;;;8.74;100.00;102507.63;5033372;28;20025;-68
2022/02/08 02:46:44;;;;;;;15.63;2.97;;;;;;;8.72;100.00;102501.50;5032352;28;20469;-65
2022/02/08 02:49:09;;;;;;;15.38;2.95;;;;;;;8.73;100.00;102503.22;5030663;28;20032;-67
2022/02/08 02:51:35;;;;;;;10.98;2.85;;;;;;;8.75;100.00;102472.41;5032001;28;20025;-66
2022/02/08 02:54:01;;;;;;;17.52;3.30;;;;;;;8.76;100.00;102486.47;5033195;28;20045;-68
2022/02/08 02:56:26;;;;;;;14.10;3.17;;;;;;;8.75;100.00;102504.09;5033988;28;20595;-68
2022/02/08 02:58:58;;;;;;;14.27;2.92;;;;;;;8.73;100.00;102505.88;5035030;28;20053;-66
2022/02/08 03:01:34;;;;;;;17.73;3.10;;;;;;;8.74;100.00;102494.41;5036223;28;20025;-68
2022/02/08 03:19:58;;;;;;;13.82;3.55;;;;;;;8.78;100.00;102474.13;5035609;28;20048;-67
2022/02/08 03:22:24;;;;;;;20.17;3.53;;;;;;;8.78;100.00;102506.69;5035152;28;20488;-68
2022/02/08 03:24:49;;;;;;;16.90;2.92;;;;;;;8.78;100.00;102501.41;5035389;28;20021;-68
2022/02/08 03:27:15;;;;;;;14.35;3.08;;;;;;;8.77;100.00;102507.63;5036603;28;20477;-68
2022/02/08 03:29:41;;;;;;;13.50;3.38;;;;;;;8.79;100.00;102492.59;5034991;28;20469;-67
2022/02/08 03:32:07;;;;;;;14.35;2.90;;;;;;;8.82;100.00;102496.97;5035635;28;20031;-67
2022/02/08 03:34:32;;;;;;;11.63;2.70;;;;;;;8.83;100.00;102496.09;5035477;28;20029;-68
2022/02/08 03:36:57;;;;;;;16.77;3.20;;;;;;;8.79;100.00;102491.75;5036569;28;20390;-67
2022/02/08 03:39:32;;;;;;;14.68;3.05;;;;;;;8.81;100.00;102500.50;5034782;28;20485;-65
2022/02/08 03:42:06;;;;;;;16.42;3.28;;;;;;;8.82;100.00;102511.06;5034885;28;20037;-65
2022/02/08 03:44:32;;;;;;;12.55;3.08;;;;;;;8.81;100.00;102509.31;5035575;28;20030;-65
2022/02/08 03:47:04;;;;;;;18.60;2.80;;;;;;;8.80;100.00;102485.56;5035682;28;20030;-66
2022/02/08 03:49:30;;;;;;;14.75;3.28;;;;;;;8.83;100.00;102519.88;5015643;28;20061;-65
2022/02/08 03:51:59;;;;;;;16.25;3.03;;;;;;;8.78;100.00;102519.91;5031669;28;20473;-65
2022/02/08 03:54:24;;;;;;;11.77;2.90;;;;;;;8.79;100.00;102510.22;5034869;28;20029;-65
2022/02/08 03:56:50;;;;;;;12.65;2.55;;;;;;;8.81;100.00;102519.88;5035167;28;20029;-64
2022/02/08 03:59:16;;;;;;;15.60;3.00;;;;;;;8.84;100.00;102505.78;5047967;28;20104;-65
2022/02/08 04:06:57;;;;;;;17.88;3.13;;;;;;;8.85;99.39;102508.38;5034891;28;20113;-65
2022/02/08 04:09:22;;;;;;;12.75;2.78;;;;;;;8.90;98.53;102512.75;5035658;28;20037;-64
2022/02/08 04:11:57;;;;;;;14.77;2.53;;;;;;;8.90;98.73;102504.81;5034500;28;20022;-65
2022/02/08 04:14:33;;;;;;;12.13;2.63;;;;;;;8.90;98.26;102507.47;5034815;28;20021;-64
2022/02/08 04:17:09;;;;;;;12.48;2.78;;;;;;;8.88;98.80;102512.78;5034667;28;20485;-65
2022/02/08 04:19:46;;;;;;;14.80;3.20;;;;;;;8.89;98.73;102524.19;5035546;28;20044;-65
2022/02/08 04:33:19;;;;;;;12.40;2.55;;;;;;;8.89;98.48;102533.03;5034245;28;20044;-65
2022/02/08 04:36:12;;;;;;;15.73;2.50;;;;;;;8.88;99.24;102506.63;5034288;28;20466;-65
2022/02/08 04:38:56;;;;;;;19.90;3.28;;;;;;;8.91;98.85;102528.56;5034265;28;20021;-65
2022/02/08 04:41:30;;;;;;;13.98;2.83;;;;;;;8.89;98.92;102534.75;5034868;28;20519;-65
2022/02/08 04:44:11;;;;;;;18.30;2.70;;;;;;;8.87;99.43;102521.56;5033843;28;20495;-68
2022/02/08 04:46:58;;;;;;;20.98;3.20;;;;;;;8.90;98.65;102523.31;5034084;28;20060;-68
2022/02/08 04:49:24;;;;;;;17.13;3.30;;;;;;;8.89;98.97;102521.56;5034022;28;20029;-66
2022/02/08 04:51:54;;;;;;;13.60;2.40;;;;;;;8.87;98.39;102523.34;5035308;28;20036;-68
2022/02/08 04:57:09;;;;;;;18.30;2.80;;;;;;;8.84;98.10;102514.56;5033914;28;20397;-67
2022/02/08 05:02:30;;;;;;;15.77;2.83;;;;;;;8.84;97.99;102519.84;5034800;28;20064;-67
2022/02/08 05:29:34;;;;;;;18.17;2.65;;;;;;;8.94;95.36;102506.53;5013704;28;20109;-67
2022/02/08 05:42:24;;;;;;;15.48;2.90;;;;;;;8.94;95.59;102514.44;5033787;28;20052;-65
2022/02/08 05:44:57;;;;;;;11.50;2.50;;;;;;;8.94;95.35;102502.13;5033128;28;20128;-65
2022/02/08 05:47:23;;;;;;;14.88;2.65;;;;;;;8.94;95.57;102506.53;5024178;28;20030;-64
2022/02/08 05:50:04;;;;;;;16.98;2.58;;;;;;;8.97;95.87;102483.59;5032822;28;20477;-64
2022/02/08 05:52:46;;;;;;;9.00;2.50;;;;;;;9.03;95.09;102509.09;5033724;28;20032;-65
2022/02/08 05:55:11;;;;;;;16.27;3.42;;;;;;;8.99;95.48;102505.59;5032819;28;20400;-65
2022/02/08 05:57:37;;;;;;;14.18;2.67;;;;;;;8.98;95.63;102506.50;5031699;28;20037;-66
2022/02/08 06:00:04;;;;;;;9.65;2.47;;;;;;;9.00;95.21;102506.47;5032429;28;20037;-65
2022/02/08 06:02:30;;;;;;;14.60;2.40;;;;;;;8.99;95.30;102505.59;5033650;28;20374;-65
2022/02/08 06:04:55;;;;;;;10.52;2.67;;;;;;;9.02;95.08;102491.47;5032704;28;20033;-66
2022/02/08 06:07:22;;;;;;;12.95;2.60;;;;;;;9.01;95.25;102501.19;5032493;28;20040;-64
2022/02/08 06:09:51;;;;;;;12.93;2.60;;;;;;;8.99;95.08;102484.47;5032954;28;20036;-65
2022/02/08 06:12:17;;;;;;;17.52;2.88;;;;;;;9.01;94.78;102500.28;5031936;28;20029;-64
2022/02/08 06:14:44;;;;;;;10.07;2.53;;;;;;;9.02;94.52;102497.63;5028143;28;20620;-64
2022/02/08 06:17:09;;;;;;;10.65;2.28;;;;;;;8.97;94.73;102488.00;5022429;28;20097;-64
2022/02/08 06:19:34;;;;;;;9.20;2.47;;;;;;;9.00;94.96;102493.25;5021307;28;20168;-65
2022/02/08 06:21:59;;;;;;;14.98;3.38;;;;;;;9.00;94.20;102493.25;5032640;28;20036;-66
2022/02/08 06:24:25;;;;;;;11.98;2.58;;;;;;;8.96;94.70;102505.63;5038995;28;20465;-65
2022/02/08 06:26:50;;;;;;;15.45;2.67;;;;;;;8.99;94.26;102497.69;5050050;28;20103;-64
2022/02/08 06:29:21;;;;;;;15.20;2.92;;;;;;;8.96;94.26;102505.63;5029322;28;20030;-65
2022/02/08 06:31:46;;;;;;;8.98;2.40;;;;;;;8.97;94.13;102493.31;5034442;28;20032;-65
2022/02/08 06:34:17;;;;;;;12.82;3.03;;;;;;;8.95;94.62;102510.94;5037543;28;20026;-65
2022/02/08 06:36:42;;;;;;;17.50;2.70;;;;;;;8.99;94.03;102505.59;5016752;28;20038;-65
2022/02/08 06:39:08;;;;;;;16.40;3.05;;;;;;;9.00;94.24;102515.28;5033988;28;20515;-65
2022/02/08 06:41:33;;;;;;;15.13;2.50;;;;;;;9.01;94.09;102518.78;5035985;28;19924;-65
2022/02/08 06:44:00;;;;;;;9.75;2.35;;;;;;;9.04;93.79;102528.44;5035975;28;20021;-66
2022/02/08 06:46:28;;;;;;;9.60;2.25;;;;;;;9.09;93.12;102546.03;5037009;28;20052;-66
2022/02/08 06:48:54;;;;;;;9.70;2.40;;;;;;;9.11;92.98;102519.56;5035743;28;20029;-66
2022/02/08 06:51:19;;;;;;;17.52;3.40;;;;;;;9.12;92.88;102535.41;5036465;28;20025;-66
2022/02/08 06:53:44;;;;;;;14.05;1.88;;;;;;;9.13;92.50;102531.88;5031601;28;20319;-65
2022/02/08 06:56:10;;;;;;;13.45;2.55;;;;;;;9.12;92.34;102545.97;5034626;28;20033;-66
2022/02/08 06:58:51;;;;;;;14.20;2.40;;;;;;;9.13;92.23;102537.16;5034646;28;20073;-66
2022/02/08 07:01:19;;;;;;;11.77;2.58;;;;;;;9.08;92.90;102546.91;5052052;28;20036;-67
2022/02/08 07:03:46;;;;;;;7.68;2.35;;;;;;;9.06;93.02;102540.75;5037123;28;20064;-65
2022/02/08 07:06:12;;;;;;;14.43;2.88;;;;;;;9.08;92.60;102511.66;5046838;28;20029;-66
2022/02/08 07:08:38;;;;;;;17.83;3.42;;;;;;;9.10;92.36;102538.94;5034791;28;20025;-65
2022/02/08 07:11:03;;;;;;;14.13;2.80;;;;;;;9.10;92.14;102537.19;5050463;28;20056;-65
2022/02/08 07:13:28;;;;;;;9.88;2.17;;;;;;;9.10;92.10;102552.16;5043389;28;20030;-65
2022/02/08 07:15:54;;;;;;;12.73;2.58;;;;;;;9.04;92.41;102552.22;5045604;28;20057;-67
2022/02/08 07:18:19;;;;;;;10.98;2.63;;;;;;;9.03;92.77;102540.81;5044399;28;20033;-64
2022/02/08 07:20:44;;;;;;;20.70;3.22;;;;;;;9.04;91.92;102555.78;5049825;28;20044;-68
2022/02/08 07:23:10;;;;;;;9.93;2.17;;;;;;;9.03;92.33;102530.22;5035306;28;20076;-71
2022/02/08 07:25:35;;;;;;;9.00;1.92;;;;;;;9.06;91.98;102553.97;5035655;28;20029;-72
2022/02/08 07:28:01;;;;;;;9.32;1.90;;;;;;;9.05;91.92;102546.91;5035629;28;20596;-67
2022/02/08 07:30:29;;;;;;;12.48;2.20;;;;;;;9.08;91.95;102535.44;5034402;28;20466;-69
2022/02/08 07:32:55;;;;;;;13.98;2.42;;;;;;;9.06;91.43;102548.69;5034114;28;20478;-69
2022/02/08 07:40:41;;;;;;;12.00;2.13;;;;;;;9.09;91.21;102563.63;5024873;28;20077;-69
2022/02/08 07:43:07;;;;;;;8.02;1.98;;;;;;;9.14;90.84;102569.75;5047413;28;20124;-67
2022/02/08 07:45:32;;;;;;;8.80;1.88;;;;;;;9.16;90.37;102546.81;5055044;28;20100;-65
2022/02/08 07:47:57;;;;;;;16.98;2.10;;;;;;;9.16;90.90;102567.97;5042330;28;20044;-65
2022/02/08 07:50:25;;;;;;;8.10;2.00;;;;;;;9.22;90.30;102578.47;5047233;28;20037;-65
2022/02/08 07:52:51;;;;;;;8.82;2.33;;;;;;;9.27;90.60;102573.13;5037063;28;20033;-69
2022/02/08 07:55:18;;;;;;;13.70;2.55;;;;;;;9.34;90.19;102564.22;5040961;28;20029;-67
2022/02/08 07:57:43;;;;;;;6.20;1.50;;;;;;;9.35;90.36;102566.84;5043710;28;20021;-67
2022/02/08 08:00:09;;;;;;;7.15;1.63;;;;;;;9.37;90.43;102558.88;5034817;28;20083;-66
2022/02/08 08:02:36;;;;;;;9.82;1.98;;;;;;;9.40;90.12;102564.16;5034456;28;20087;-65
2022/02/08 08:05:01;;;;;;;14.25;2.08;;;;;;;9.37;90.52;102561.53;5033833;28;20370;-65
2022/02/08 08:07:27;;;;;;;8.65;2.00;;;;;;;9.42;90.05;102562.34;5032380;28;20087;-64
2022/02/08 08:09:52;;;;;;;9.10;2.38;;;;;;;9.42;89.97;102569.41;5033753;28;20064;-67
2022/02/08 08:12:17;;;;;;;13.43;2.45;;;;;;;9.47;90.00;102565.81;5033903;28;20396;-67
2022/02/08 08:14:44;;;;;;;11.25;2.10;;;;;;;9.48;90.20;102579.94;5036481;28;20029;-64
2022/02/08 08:19:53;;;;;;;10.63;2.17;;;;;;;9.53;89.69;102538.44;5030048;28;20477;-66
2022/02/08 08:22:19;;;;;;;8.10;2.35;;;;;;;9.55;89.81;102578.94;5034198;28;20036;-65
2022/02/08 08:24:45;;;;;;;12.20;1.92;;;;;;;9.55;89.62;102591.31;5035791;28;20416;-66
2022/02/08 08:27:12;;;;;;;10.65;2.58;;;;;;;9.56;89.96;102591.28;5034382;28;20366;-65
2022/02/08 08:29:38;;;;;;;11.63;2.33;;;;;;;9.55;89.61;102589.53;5034655;28;20091;-67
2022/02/08 08:32:05;;;;;;;12.70;2.80;;;;;;;9.52;89.66;102576.34;5026519;28;20033;-65
2022/02/08 08:34:31;;;;;;;8.38;1.83;;;;;;;9.56;89.27;102587.78;5034119;28;20044;-67
2022/02/08 08:36:57;;;;;;;15.60;2.80;;;;;;;9.59;89.08;102577.13;5032916;28;20397;-67
2022/02/08 08:39:27;;;;;;;13.73;2.83;;;;;;;9.60;89.43;102569.19;5033716;28;20026;-68
2022/02/08 08:52:33;;;;;;;16.42;2.47;;;;;;;10.01;87.58;102590.69;5034065;28;20049;-66
2022/02/08 08:54:58;;;;;;;8.93;2.00;;;;;;;10.26;86.26;102598.28;5032891;28;20120;-66
2022/02/08 08:57:26;;;;;;;10.48;1.90;;;;;;;10.71;84.16;102603.75;5045085;28;20174;-65
2022/02/08 08:59:51;;;;;;;13.70;2.80;;;;;;;10.99;82.37;102580.28;5039406;28;20075;-67
2022/02/08 09:02:17;;;;;;;14.38;2.60;;;;;;;11.12;81.85;102602.13;5020254;28;20073;-66
2022/02/08 09:04:44;;;;;;;9.57;1.80;;;;;;;11.19;80.68;102602.91;5017300;28;20030;-65
2022/02/08 09:07:10;;;;;;;9.38;2.25;;;;;;;11.70;79.22;102603.63;5029217;28;20149;-68
2022/02/08 09:09:39;;;;;;;13.23;2.47;;;;;;;12.03;76.96;102609.16;5024529;28;20545;-66
2022/02/08 09:12:20;;;;;;;9.48;2.00;;;;;;;11.54;78.75;102614.56;5014025;28;20026;-68
2022/02/08 09:20:03;;;;;;;9.10;1.70;;;;;;;12.51;74.36;102611.56;5035887;28;20040;-67
2022/02/08 09:30:16;;;;;;;8.93;2.00;;;;;;;11.27;78.46;102606.25;5013391;28;20044;-67
2022/02/08 09:32:50;;;;;;;10.80;2.17;;;;;;;11.15;79.45;102603.84;5035170;28;20052;-67
2022/02/08 09:35:16;;;;;;;7.65;2.05;;;;;;;10.98;80.24;102606.81;5031462;28;20104;-67
2022/02/08 09:37:43;;;;;;;7.80;1.80;;;;;;;11.04;79.68;102619.97;5029751;28;20044;-68
2022/02/08 09:40:11;;;;;;;8.00;2.15;;;;;;;11.08;79.75;102605.75;5034070;28;20032;-66
2022/02/08 09:42:39;;;;;;;6.35;2.00;;;;;;;11.01;79.79;102606.78;5024454;28;20037;-64
2022/02/08 09:45:09;;;;;;;8.48;2.20;;;;;;;11.03;79.41;102593.50;5026242;28;20136;-66
2022/02/08 09:47:53;;;;;;;9.15;1.80;;;;;;;10.99;79.65;102593.53;5020078;28;20052;-67
2022/02/08 09:50:23;;;;;;;9.43;1.88;;;;;;;10.98;79.83;102598.84;5031182;28;20425;-67
2022/02/08 09:52:54;;;;;;;12.43;1.70;;;;;;;10.90;80.27;102599.00;5033325;28;20033;-68
2022/02/08 09:55:21;;;;;;;9.23;1.80;;;;;;;10.94;79.95;102613.06;5026689;28;20519;-66
2022/02/08 09:57:46;;;;;;;8.40;1.77;;;;;;;10.91;79.65;102608.72;5014264;28;20026;-68
2022/02/08 10:00:13;;;;;;;10.40;1.88;;;;;;;10.98;79.58;102618.31;5013956;28;20516;-67
2022/02/08 10:02:38;;;;;;;13.25;2.40;;;;;;;10.99;79.68;102596.19;5012820;28;20474;-65
2022/02/08 10:05:05;;;;;;;9.57;2.10;;;;;;;11.02;78.77;102602.34;5028506;28;20104;-66
2022/02/08 10:07:35;;;;;;;12.93;2.13;;;;;;;10.97;78.58;102611.25;5025082;28;20041;-66
2022/02/08 10:10:03;;;;;;;7.78;1.60;;;;;;;11.04;78.81;102617.31;5013564;28;20038;-66
2022/02/08 10:23:36;;;;;;;10.43;1.67;;;;;;;11.03;78.11;102618.22;5032503;28;20041;-67
2022/02/08 10:26:06;;;;;;;8.38;1.80;;;;;;;11.03;78.63;102598.78;5027926;28;20034;-65
2022/02/08 10:29:06;;;;;;;10.57;1.92;;;;;;;11.01;78.93;102605.88;5012612;28;20032;-67
2022/02/08 10:39:26;;;;;;;12.48;2.45;;;;;;;11.00;78.46;102618.28;5025483;28;20033;-65
2022/02/08 10:41:51;;;;;;;13.35;2.35;;;;;;;10.91;79.13;102635.22;5028173;28;20456;-65
2022/02/08 10:44:17;;;;;;;10.05;2.13;;;;;;;10.99;78.21;102629.78;5032285;28;20071;-65
2022/02/08 10:46:42;;;;;;;9.15;1.80;;;;;;;11.09;78.05;102625.19;5024786;28;20108;-65
2022/02/08 10:49:11;;;;;;;15.00;2.55;;;;;;;11.14;78.08;102602.13;5032299;28;20037;-64
2022/02/08 10:51:45;;;;;;;12.35;1.83;;;;;;;11.21;78.26;102626.72;5023313;28;20022;-64
2022/02/08 10:54:19;;;;;;;9.95;1.90;;;;;;;11.31;77.20;102615.91;5012594;28;20033;-65
2022/02/08 10:56:50;;;;;;;10.40;2.47;;;;;;;11.48;76.37;102589.06;5016055;28;20056;-64
2022/02/08 10:59:24;;;;;;;10.45;1.77;;;;;;;11.38;76.44;102614.03;5030950;28;20021;-68
2022/02/08 11:02:13;;;;;;;10.73;1.80;;;;;;;11.44;76.50;102597.09;5029709;28;20045;-64
2022/02/08 11:13:10;;;;;;;12.88;2.35;;;;;;;11.94;73.54;102611.09;5009432;28;20041;-66
2022/02/08 11:15:29;;;;;;;9.02;1.65;;;;;;;11.92;74.30;102612.03;5009161;28;20375;-68
2022/02/08 11:18:18;;;;;;;9.82;1.80;;;;;;;11.85;74.62;102618.38;5012079;28;20100;-64
2022/02/08 11:20:50;;;;;;;10.73;2.58;;;;;;;11.75;74.61;102621.22;5010596;28;20145;-67
2022/02/08 11:23:25;;;;;;;;;;;;;;;11.53;74.67;102611.97;5012584;28;20112;-65
2022/02/08 11:25:53;;;;;;;12.55;2.10;;;;;;;11.40;75.80;102598.06;5013201;28;19979;-64
2022/02/08 11:53:08;;;;;;;7.35;1.95;;;;;;;12.37;71.67;102593.31;5047060;28;20100;-64
2022/02/08 11:55:29;;;;;;;9.23;2.42;;;;;;;12.60;70.17;102565.28;5023996;28;20100;-65
2022/02/08 12:00:47;;;;;;;13.00;2.08;;;;;;;12.42;70.99;102583.44;5015249;28;20065;-64
2022/02/08 12:08:30;;;;;;;9.60;2.17;;;;;;;12.81;69.55;102581.59;5008875;28;20069;-64
2022/02/08 12:11:16;;;;;;;8.38;1.80;;;;;;;12.97;68.99;102601.53;5011428;28;20042;-62
2022/02/08 12:30:57;;;;;;;10.63;2.63;;;;;;;12.62;70.26;102590.91;5011070;28;20466;-64
2022/02/08 12:35:55;;;;;;;7.68;2.10;;;;;;;12.54;70.97;102595.53;5011974;28;20034;-64
2022/02/08 12:57:57;;;;;;;12.98;2.22;;;;;;;12.06;72.97;102594.03;4990500;28;20046;-63
2022/02/08 14:08:16;;;;;;;10.90;2.42;;;;;;;12.05;73.00;102579.00;5032600;28;20136;-64
2022/02/08 14:11:05;;;;;;;7.32;2.05;;;;;;;11.97;73.00;102573.00;5031335;28;20521;-64
2022/02/08 14:24:15;;;;;;;12.68;1.88;;;;;;;12.19;72.36;102588.44;5035519;28;20033;-66
2022/02/08 14:32:07;;;;;;;9.75;2.10;;;;;;;12.52;71.35;102601.81;5027823;28;20037;-65
2022/02/08 15:09:33;;;;;;;10.45;2.13;;;;;;;12.28;72.42;102596.19;5050298;28;20037;-63
2022/02/08 15:14:27;;;;;;;12.68;2.00;;;;;;;12.37;71.83;102601.28;5034057;28;20474;-64
2022/02/08 15:16:52;;;;;;;10.77;2.35;;;;;;;12.17;72.63;102601.75;5035673;28;20114;-66
2022/02/08 15:19:18;;;;;;;16.63;3.03;;;;;;;12.04;73.31;102602.94;5034041;28;20474;-67
2022/02/08 15:21:43;;;;;;;9.65;2.00;;;;;;;11.93;73.88;102606.69;5036443;28;20025;-64
2022/02/08 15:24:10;;;;;;;6.22;2.00;;;;;;;11.73;74.57;102604.47;5045646;28;20100;-63
2022/02/08 15:26:36;;;;;;;10.80;2.10;;;;;;;11.51;74.95;102601.41;5035947;28;20052;-64
2022/02/08 15:29:04;;;;;;;8.52;2.00;;;;;;;11.42;75.80;102597.13;5035263;28;20045;-65
2022/02/08 15:31:30;;;;;;;10.35;2.17;;;;;;;11.29;76.15;102600.94;5035540;28;20033;-64
2022/02/08 15:33:58;;;;;;;11.38;2.15;;;;;;;11.12;77.26;102594.16;5035234;28;20167;-65
2022/02/08 15:36:23;;;;;;;9.90;2.00;;;;;;;11.08;77.78;102596.94;5035366;28;20444;-66
2022/02/08 15:38:53;;;;;;;7.15;2.05;;;;;;;10.97;77.88;102583.84;5035606;28;20037;-64
2022/02/08 15:41:18;;;;;;;6.75;1.92;;;;;;;10.90;78.32;102582.25;5035141;28;20040;-65
2022/02/08 15:43:44;;;;;;;9.13;1.80;;;;;;;10.84;78.49;102592.94;5032731;28;20045;-65
2022/02/08 15:46:19;;;;;;;8.57;2.30;;;;;;;10.84;78.97;102590.28;5017690;28;20469;-63
2022/02/08 15:48:46;;;;;;;12.52;2.03;;;;;;;10.81;79.26;102589.44;5025787;28;20022;-63
2022/02/08 15:56:53;;;;;;;9.77;2.80;;;;;;;10.48;80.68;102598.84;5026664;28;20036;-65
2022/02/08 16:07:15;;;;;;;16.25;3.75;;;;;;;10.15;83.12;102590.47;5029076;28;20044;-65
2022/02/08 16:17:36;;;;;;;10.02;2.20;;;;;;;9.97;83.81;102611.03;5044872;28;20112;-64
2022/02/08 16:50:57;;;;;;;9.80;2.60;;;;;;;9.40;87.27;102630.25;5011377;28;20091;-63
2022/02/08 16:53:10;;;;;;;11.13;3.10;;;;;;;9.29;87.81;102640.06;5007899;28;20148;-64
2022/02/08 17:00:32;;;;;;;14.45;3.50;;;;;;;9.13;88.91;102645.53;5026341;28;20038;-63
2022/02/08 17:03:03;;;;;;;16.58;3.50;;;;;;;9.12;89.40;102648.19;5030850;28;20092;-62
2022/02/08 17:05:29;;;;;;;11.45;2.50;;;;;;;9.11;89.35;102652.56;5034003;28;20029;-63
2022/02/08 17:07:55;;;;;;;15.80;3.17;;;;;;;9.13;89.27;102653.44;5033809;28;20151;-62
2022/02/08 17:13:09;;;;;;;7.88;1.90;;;;;;;9.21;89.34;102648.09;5034170;28;20041;-63
2022/02/08 17:34:37;;;;;;;15.80;2.80;;;;;;;9.08;90.16;102630.59;5030231;28;20119;-63
2022/02/08 17:47:43;;;;;;;13.20;2.83;;;;;;;8.96;90.33;102619.22;5039457;28;20043;-62
2022/02/08 17:50:10;;;;;;;18.42;3.85;;;;;;;8.94;90.68;102633.34;5038408;28;20412;-63
2022/02/08 17:52:37;;;;;;;18.38;2.72;;;;;;;8.95;91.09;102628.06;5031481;28;20469;-64
2022/02/08 17:55:05;;;;;;;15.35;3.83;;;;;;;8.92;91.12;102624.59;5032905;28;20033;-62
2022/02/08 17:57:30;;;;;;;19.05;3.75;;;;;;;8.85;91.37;102640.47;5033109;28;20412;-62
2022/02/08 17:59:55;;;;;;;10.45;2.63;;;;;;;8.86;91.51;102628.13;5033675;28;20030;-63
2022/02/08 18:02:24;;;;;;;13.05;2.88;;;;;;;8.80;91.76;102631.72;5032113;28;20034;-63
2022/02/08 18:04:50;;;;;;;13.27;3.58;;;;;;;8.79;91.97;102615.91;5032652;28;20377;-64
2022/02/08 18:07:19;;;;;;;14.00;3.33;;;;;;;8.73;92.59;102621.22;5020611;28;20030;-63
2022/02/08 18:09:47;;;;;;;15.82;3.08;;;;;;;8.66;93.05;102625.69;5012745;28;20108;-63
2022/02/08 18:12:12;;;;;;;18.75;3.85;;;;;;;8.64;93.24;102624.81;5015906;28;20060;-61
2022/02/08 18:14:40;;;;;;;14.45;3.40;;;;;;;8.57;93.44;102624.00;5032875;28;20079;-62
2022/02/08 18:17:19;;;;;;;15.82;4.82;;;;;;;8.52;93.62;102626.66;5025624;28;20037;-63
2022/02/08 18:19:51;;;;;;;8.32;2.08;;;;;;;8.55;93.79;102616.97;5012540;28;20026;-63
2022/02/08 19:08:01;;;;;;;18.80;5.47;;;;;;;9.06;92.73;102640.31;5010076;28;20048;-64
2022/02/08 19:18:19;;;;;;;15.13;3.27;;;;;;;9.11;92.78;102634.06;5011075;28;20048;-63
2022/02/08 19:21:06;;;;;;;12.95;2.50;;;;;;;9.09;93.31;102637.63;5008831;28;20316;-63
2022/02/08 19:23:31;;;;;;;10.98;2.58;;;;;;;9.11;93.23;102623.50;5009251;28;20046;-61
2022/02/08 19:25:56;;;;;;;11.20;2.80;;;;;;;9.14;93.17;102630.53;5010067;28;20038;-64
2022/02/08 19:28:21;;;;;;;14.82;2.25;;;;;;;9.12;92.77;102621.75;5011061;28;20109;-63
2022/02/08 19:30:47;;;;;;;18.65;3.00;;;;;;;9.09;93.14;102624.41;5010046;28;20110;-63